createdAt,value
2016-03-25T00:00:56.763Z,992.34
2016-03-25T00:01:56.766Z,992.35
2016-03-25T00:02:56.753Z,992.31
2016-03-25T00:03:56.739Z,992.34
2016-03-25T00:04:56.741Z,992.36
2016-03-25T00:05:56.744Z,992.32
2016-03-25T00:06:56.740Z,992.35
2016-03-25T00:07:56.757Z,992.27
2016-03-25T00:08:56.728Z,992.29
2016-03-25T00:09:56.731Z,992.28
2016-03-25T00:10:56.734Z,992.22
2016-03-25T00:11:56.721Z,992.23
2016-03-25T00:12:56.723Z,992.23
2016-03-25T00:13:56.726Z,992.18
2016-03-25T00:14:56.714Z,992.16
2016-03-25T00:15:56.716Z,992.19
2016-03-25T00:16:56.719Z,992.22
2016-03-25T00:17:56.722Z,992.22
2016-03-25T00:18:56.911Z,992.19
2016-03-25T00:19:56.711Z,992.24
2016-03-25T00:20:56.698Z,992.25
2016-03-25T00:21:56.700Z,992.22
2016-03-25T00:22:56.703Z,992.2
2016-03-25T00:23:56.691Z,992.22
2016-03-25T00:24:56.693Z,992.19
2016-03-25T00:25:56.696Z,992.24
2016-03-25T00:26:56.699Z,992.22
2016-03-25T00:27:56.685Z,992.26
2016-03-25T00:28:56.689Z,992.28
2016-03-25T00:29:56.691Z,992.25
2016-03-25T00:30:56.678Z,992.25
2016-03-25T00:31:56.681Z,992.23
2016-03-25T00:32:56.684Z,992.23
2016-03-25T00:33:56.671Z,992.25
2016-03-25T00:34:56.674Z,992.22
2016-03-25T00:35:56.676Z,992.24
2016-03-25T00:36:56.663Z,992.24
2016-03-25T00:37:56.665Z,992.22
2016-03-25T00:38:56.668Z,992.25
2016-03-25T00:39:56.656Z,992.26
2016-03-25T00:40:56.673Z,992.25
2016-03-25T00:41:56.661Z,992.22
2016-03-25T00:42:56.664Z,992.2
2016-03-25T00:43:56.666Z,992.19
2016-03-25T00:44:56.654Z,992.18
2016-03-25T00:45:56.656Z,992.17
2016-03-25T00:46:56.658Z,992.13
2016-03-25T00:47:56.646Z,992.14
2016-03-25T00:48:56.742Z,992.13
2016-03-25T00:49:56.650Z,992.11
2016-03-25T00:50:56.639Z,992.09
2016-03-25T00:51:56.641Z,992.13
2016-03-25T00:52:56.644Z,992.13
2016-03-25T00:53:56.631Z,992.13
2016-03-25T00:54:56.633Z,992.11
2016-03-25T00:55:56.636Z,992.1
2016-03-25T00:56:56.623Z,992.13
2016-03-25T00:57:56.626Z,992.15
2016-03-25T00:58:56.643Z,992.16
2016-03-25T00:59:56.616Z,992.18
2016-03-25T01:00:56.618Z,992.18
2016-03-25T01:01:56.621Z,992.18
2016-03-25T01:02:56.624Z,992.16
2016-03-25T01:03:56.611Z,992.2
2016-03-25T01:04:56.613Z,992.17
2016-03-25T01:05:56.616Z,992.22
2016-03-25T01:06:56.619Z,992.18
2016-03-25T01:07:56.606Z,992.21
2016-03-25T01:08:56.609Z,992.19
2016-03-25T01:09:56.612Z,992.17
2016-03-25T01:10:56.598Z,992.17
2016-03-25T01:11:56.835Z,992.18
2016-03-25T01:12:56.603Z,992.14
2016-03-25T01:13:56.590Z,992.15
2016-03-25T01:14:56.640Z,992.12
2016-03-25T01:15:56.596Z,992.07
2016-03-25T01:16:56.599Z,992.08
2016-03-25T01:17:56.586Z,992.08
2016-03-25T01:18:56.589Z,992.06
2016-03-25T01:19:56.592Z,992.05
2016-03-25T01:20:56.594Z,992
2016-03-25T01:21:56.581Z,992.01
2016-03-25T01:22:56.583Z,991.97
2016-03-25T01:23:56.586Z,991.99
2016-03-25T01:24:56.589Z,991.99
2016-03-25T01:25:56.577Z,991.96
2016-03-25T01:26:56.579Z,991.93
2016-03-25T01:27:56.582Z,991.96
2016-03-25T01:28:56.568Z,991.96
2016-03-25T01:29:56.572Z,991.98
2016-03-25T01:30:56.574Z,991.94
2016-03-25T01:31:56.577Z,991.96
2016-03-25T01:32:56.563Z,991.96
2016-03-25T01:33:56.566Z,991.99
2016-03-25T01:34:56.569Z,991.95
2016-03-25T01:35:56.572Z,991.94
2016-03-25T01:36:56.559Z,991.95
2016-03-25T01:37:56.577Z,991.93
2016-03-25T01:38:56.564Z,991.93
2016-03-25T01:39:56.567Z,991.94
2016-03-25T01:40:56.554Z,991.94
2016-03-25T01:41:56.557Z,991.9
2016-03-25T01:42:56.559Z,991.91
2016-03-25T01:43:56.546Z,991.87
2016-03-25T01:44:56.565Z,991.89
2016-03-25T01:45:56.551Z,991.95
2016-03-25T01:46:56.554Z,991.9
2016-03-25T01:47:56.542Z,991.91
2016-03-25T01:48:56.544Z,991.94
2016-03-25T01:49:56.547Z,991.92
2016-03-25T01:50:56.550Z,991.89
2016-03-25T01:51:56.536Z,991.95
2016-03-25T01:52:56.539Z,991.93
2016-03-25T01:53:56.542Z,991.9
2016-03-25T01:54:56.529Z,991.86
2016-03-25T01:55:56.532Z,991.85
2016-03-25T01:56:56.831Z,991.87
2016-03-25T01:57:56.538Z,991.84
2016-03-25T01:58:56.524Z,991.86
2016-03-25T01:59:56.527Z,991.84
2016-03-25T02:00:56.530Z,991.88
2016-03-25T02:01:56.674Z,991.87
2016-03-25T02:02:56.519Z,991.83
2016-03-25T02:03:56.521Z,991.85
2016-03-25T02:04:56.524Z,991.85
2016-03-25T02:05:56.527Z,991.8
2016-03-25T02:06:56.515Z,991.8
2016-03-25T02:07:56.517Z,991.75
2016-03-25T02:08:56.535Z,991.77
2016-03-25T02:09:56.507Z,991.77
2016-03-25T02:10:56.509Z,991.76
2016-03-25T02:11:56.512Z,991.76
2016-03-25T02:12:56.499Z,991.76
2016-03-25T02:13:56.501Z,991.75
2016-03-25T02:14:56.505Z,991.74
2016-03-25T02:15:56.507Z,991.75
2016-03-25T02:16:56.494Z,991.77
2016-03-25T02:17:56.498Z,991.74
2016-03-25T02:18:56.500Z,991.73
2016-03-25T02:19:56.502Z,991.74
2016-03-25T02:20:56.490Z,991.75
2016-03-25T02:21:56.508Z,991.76
2016-03-25T02:22:56.495Z,991.8
2016-03-25T02:23:56.497Z,991.75
2016-03-25T02:24:56.485Z,991.77
2016-03-25T02:25:56.488Z,991.74
2016-03-25T02:26:56.490Z,991.77
2016-03-25T02:27:56.493Z,991.78
2016-03-25T02:28:56.479Z,991.72
2016-03-25T02:29:56.482Z,991.71
2016-03-25T02:30:56.486Z,991.73
2016-03-25T02:31:56.488Z,991.7
2016-03-25T02:32:56.474Z,991.71
2016-03-25T02:33:56.478Z,991.67
2016-03-25T02:34:56.480Z,991.71
2016-03-25T02:35:56.482Z,991.7
2016-03-25T02:36:56.470Z,991.73
2016-03-25T02:37:56.473Z,991.7
2016-03-25T02:38:56.476Z,991.69
2016-03-25T02:39:56.463Z,991.68
2016-03-25T02:40:56.465Z,991.7
2016-03-25T02:41:56.468Z,991.66
2016-03-25T02:42:56.471Z,991.71
2016-03-25T02:43:56.473Z,991.72
2016-03-25T02:44:56.459Z,991.68
2016-03-25T02:45:56.462Z,991.71
2016-03-25T02:46:56.442Z,991.66
2016-03-25T02:47:56.430Z,991.76
2016-03-25T02:48:56.418Z,991.68
2016-03-25T02:49:56.405Z,991.69
2016-03-25T02:50:56.393Z,991.69
2016-03-25T02:51:56.370Z,991.67
2016-03-25T02:52:56.367Z,991.69
2016-03-25T02:53:56.350Z,991.71
2016-03-25T02:54:56.347Z,991.7
2016-03-25T02:55:56.345Z,991.7
2016-03-25T02:56:56.343Z,991.71
2016-03-25T02:57:56.344Z,991.73
2016-03-25T02:58:56.329Z,991.73
2016-03-25T02:59:56.330Z,991.72
2016-03-25T03:00:56.314Z,991.74
2016-03-25T03:01:56.332Z,991.75
2016-03-25T03:02:56.318Z,991.73
2016-03-25T03:03:56.320Z,991.73
2016-03-25T03:04:56.322Z,991.75
2016-03-25T03:05:56.308Z,991.75
2016-03-25T03:06:56.310Z,991.73
2016-03-25T03:07:56.313Z,991.7
2016-03-25T03:08:56.299Z,991.71
2016-03-25T03:09:56.301Z,991.67
2016-03-25T03:10:56.320Z,991.68
2016-03-25T03:11:56.306Z,991.66
2016-03-25T03:12:56.309Z,991.65
2016-03-25T03:13:56.296Z,991.69
2016-03-25T03:14:56.298Z,991.7
2016-03-25T03:15:56.301Z,991.71
2016-03-25T03:16:56.289Z,991.73
2016-03-25T03:17:56.291Z,991.72
2016-03-25T03:18:56.294Z,991.75
2016-03-25T03:19:56.281Z,991.76
2016-03-25T03:20:56.300Z,991.74
2016-03-25T03:21:56.286Z,991.75
2016-03-25T03:22:56.305Z,991.72
2016-03-25T03:23:56.277Z,991.77
2016-03-25T03:24:56.279Z,991.76
2016-03-25T03:25:56.282Z,991.73
2016-03-25T03:26:56.269Z,991.69
2016-03-25T03:27:56.271Z,991.74
2016-03-25T03:28:56.275Z,991.71
2016-03-25T03:29:56.278Z,991.71
2016-03-25T03:30:56.264Z,991.73
2016-03-25T03:31:56.283Z,991.7
2016-03-25T03:32:56.270Z,991.67
2016-03-25T03:33:56.272Z,991.67
2016-03-25T03:34:56.260Z,991.66
2016-03-25T03:35:56.263Z,991.67
2016-03-25T03:36:56.265Z,991.68
2016-03-25T03:37:56.269Z,991.67
2016-03-25T03:38:56.255Z,991.65
2016-03-25T03:39:56.257Z,991.66
2016-03-25T03:40:56.261Z,991.68
2016-03-25T03:41:56.247Z,991.67
2016-03-25T03:42:56.249Z,991.65
2016-03-25T03:43:56.253Z,991.68
2016-03-25T03:44:56.255Z,991.62
2016-03-25T03:45:56.243Z,991.66
2016-03-25T03:46:56.246Z,991.67
2016-03-25T03:47:56.248Z,991.7
2016-03-25T03:48:56.251Z,991.67
2016-03-25T03:49:56.237Z,991.69
2016-03-25T03:50:56.240Z,991.64
2016-03-25T03:51:56.243Z,991.65
2016-03-25T03:52:56.245Z,991.68
2016-03-25T03:53:56.234Z,991.66
2016-03-25T03:54:56.236Z,991.63
2016-03-25T03:55:56.238Z,991.65
2016-03-25T03:56:56.242Z,991.67
2016-03-25T03:57:56.228Z,991.62
2016-03-25T03:58:56.231Z,991.66
2016-03-25T03:59:56.233Z,991.63
2016-03-25T04:00:56.220Z,991.62
2016-03-25T04:01:56.223Z,991.62
2016-03-25T04:02:56.225Z,991.61
2016-03-25T04:03:56.228Z,991.63
2016-03-25T04:04:56.216Z,991.59
2016-03-25T04:05:56.219Z,991.61
2016-03-25T04:06:56.221Z,991.58
2016-03-25T04:07:56.223Z,991.63
2016-03-25T04:08:56.211Z,991.59
2016-03-25T04:09:56.213Z,991.63
2016-03-25T04:10:56.216Z,991.59
2016-03-25T04:11:56.219Z,991.57
2016-03-25T04:12:56.221Z,991.55
2016-03-25T04:13:56.208Z,991.55
2016-03-25T04:14:56.211Z,991.55
2016-03-25T04:15:56.213Z,991.59
2016-03-25T04:16:56.216Z,991.56
2016-03-25T04:17:56.219Z,991.59
2016-03-25T04:18:56.207Z,991.55
2016-03-25T04:19:56.209Z,991.58
2016-03-25T04:20:56.196Z,991.58
2016-03-25T04:21:56.198Z,991.59
2016-03-25T04:22:56.202Z,991.6
2016-03-25T04:23:56.204Z,991.57
2016-03-25T04:24:56.191Z,991.57
2016-03-25T04:25:56.194Z,991.61
2016-03-25T04:26:56.197Z,991.58
2016-03-25T04:27:56.200Z,991.6
2016-03-25T04:28:56.202Z,991.56
2016-03-25T04:29:56.189Z,991.53
2016-03-25T04:30:56.192Z,991.53
2016-03-25T04:31:56.194Z,991.51
2016-03-25T04:32:56.197Z,991.5
2016-03-25T04:33:56.184Z,991.5
2016-03-25T04:34:56.186Z,991.52
2016-03-25T04:35:56.190Z,991.52
2016-03-25T04:36:56.192Z,991.56
2016-03-25T04:37:56.179Z,991.53
2016-03-25T04:38:56.183Z,991.51
2016-03-25T04:39:56.185Z,991.5
2016-03-25T04:40:56.187Z,991.52
2016-03-25T04:41:56.190Z,991.49
2016-03-25T04:42:56.177Z,991.46
2016-03-25T04:43:56.180Z,991.47
2016-03-25T04:44:56.183Z,991.47
2016-03-25T04:45:56.169Z,991.47
2016-03-25T04:46:56.171Z,991.49
2016-03-25T04:47:56.175Z,991.46
2016-03-25T04:48:56.162Z,991.49
2016-03-25T04:49:56.164Z,991.48
2016-03-25T04:50:56.168Z,991.44
2016-03-25T04:51:56.170Z,991.46
2016-03-25T04:52:56.157Z,991.51
2016-03-25T04:53:56.160Z,991.47
2016-03-25T04:54:56.162Z,991.46
2016-03-25T04:55:56.165Z,991.46
2016-03-25T04:56:56.230Z,991.45
2016-03-25T04:57:56.156Z,991.45
2016-03-25T04:58:56.158Z,991.47
2016-03-25T04:59:56.161Z,991.44
2016-03-25T05:00:56.164Z,991.43
2016-03-25T05:01:56.166Z,991.4
2016-03-25T05:02:56.153Z,991.39
2016-03-25T05:03:56.155Z,991.44
2016-03-25T05:04:56.142Z,991.39
2016-03-25T05:05:56.144Z,991.42
2016-03-25T05:06:56.147Z,991.43
2016-03-25T05:07:56.137Z,991.42
2016-03-25T05:08:56.140Z,991.38
2016-03-25T05:09:56.142Z,991.39
2016-03-25T05:10:56.145Z,991.44
2016-03-25T05:11:56.147Z,991.43
2016-03-25T05:12:56.134Z,991.44
2016-03-25T05:13:56.137Z,991.42
2016-03-25T05:14:56.139Z,991.45
2016-03-25T05:15:56.126Z,991.45
2016-03-25T05:16:56.144Z,991.44
2016-03-25T05:17:56.131Z,991.41
2016-03-25T05:18:56.134Z,991.45
2016-03-25T05:19:56.121Z,991.43
2016-03-25T05:20:56.139Z,991.42
2016-03-25T05:21:56.127Z,991.42
2016-03-25T05:22:56.129Z,991.47
2016-03-25T05:23:56.116Z,991.43
2016-03-25T05:24:56.119Z,991.4
2016-03-25T05:25:56.122Z,991.44
2016-03-25T05:26:56.124Z,991.39
2016-03-25T05:27:56.111Z,991.42
2016-03-25T05:28:56.114Z,991.44
2016-03-25T05:29:56.117Z,991.42
2016-03-25T05:30:56.119Z,991.42
2016-03-25T05:31:56.107Z,991.39
2016-03-25T05:32:56.110Z,991.42
2016-03-25T05:33:56.112Z,991.43
2016-03-25T05:34:56.115Z,991.44
2016-03-25T05:35:56.101Z,991.4
2016-03-25T05:36:56.105Z,991.45
2016-03-25T05:37:56.107Z,991.42
2016-03-25T05:38:56.110Z,991.43
2016-03-25T05:39:56.098Z,991.39
2016-03-25T05:40:56.100Z,991.41
2016-03-25T05:41:56.103Z,991.39
2016-03-25T05:42:56.106Z,991.41
2016-03-25T05:43:56.092Z,991.41
2016-03-25T05:44:56.092Z,991.4
2016-03-25T05:45:56.095Z,991.46
2016-03-25T05:46:56.097Z,991.45
2016-03-25T05:47:56.084Z,991.46
2016-03-25T05:48:56.086Z,991.48
2016-03-25T05:49:56.090Z,991.46
2016-03-25T05:50:56.092Z,991.49
2016-03-25T05:51:56.079Z,991.51
2016-03-25T05:52:56.083Z,991.5
2016-03-25T05:53:56.085Z,991.5
2016-03-25T05:54:56.087Z,991.49
2016-03-25T05:55:56.091Z,991.51
2016-03-25T05:56:56.077Z,991.48
2016-03-25T05:57:56.085Z,991.49
2016-03-25T05:58:56.072Z,991.51
2016-03-25T05:59:56.074Z,991.5
2016-03-25T06:00:56.076Z,991.47
2016-03-25T06:01:56.080Z,991.48
2016-03-25T06:02:56.082Z,991.5
2016-03-25T06:03:56.070Z,991.48
2016-03-25T06:04:56.073Z,991.48
2016-03-25T06:05:56.075Z,991.48
2016-03-25T06:06:56.078Z,991.52
2016-03-25T06:07:56.065Z,991.5
2016-03-25T06:08:56.067Z,991.53
2016-03-25T06:09:56.070Z,991.49
2016-03-25T06:10:56.073Z,991.53
2016-03-25T06:11:56.075Z,991.49
2016-03-25T06:12:56.064Z,991.5
2016-03-25T06:13:56.066Z,991.48
2016-03-25T06:14:56.068Z,991.5
2016-03-25T06:15:56.072Z,991.49
2016-03-25T06:16:56.058Z,991.46
2016-03-25T06:17:56.060Z,991.45
2016-03-25T06:18:56.063Z,991.45
2016-03-25T06:19:56.066Z,991.45
2016-03-25T06:20:56.053Z,991.43
2016-03-25T06:21:56.055Z,991.46
2016-03-25T06:22:56.058Z,991.45
2016-03-25T06:23:56.061Z,991.48
2016-03-25T06:24:56.063Z,991.46
2016-03-25T06:25:56.051Z,991.43
2016-03-25T06:26:56.054Z,991.42
2016-03-25T06:27:56.056Z,991.39
2016-03-25T06:28:56.043Z,991.38
2016-03-25T06:29:56.062Z,991.4
2016-03-25T06:30:56.048Z,991.41
2016-03-25T06:31:56.051Z,991.44
2016-03-25T06:32:56.054Z,991.42
2016-03-25T06:33:56.041Z,991.42
2016-03-25T06:34:56.044Z,991.45
2016-03-25T06:35:56.046Z,991.45
2016-03-25T06:36:56.049Z,991.48
2016-03-25T06:37:56.052Z,991.5
2016-03-25T06:38:56.039Z,991.48
2016-03-25T06:39:56.041Z,991.51
2016-03-25T06:40:56.045Z,991.56
2016-03-25T06:41:56.047Z,991.53
2016-03-25T06:42:56.033Z,991.53
2016-03-25T06:43:56.053Z,991.53
2016-03-25T06:44:56.039Z,991.54
2016-03-25T06:45:56.042Z,991.53
2016-03-25T06:46:56.045Z,991.52
2016-03-25T06:47:56.047Z,991.53
2016-03-25T06:48:56.035Z,991.52
2016-03-25T06:49:56.038Z,991.51
2016-03-25T06:50:56.040Z,991.58
2016-03-25T06:51:56.043Z,991.53
2016-03-25T06:52:56.046Z,991.52
2016-03-25T06:53:56.032Z,991.54
2016-03-25T06:54:56.036Z,991.54
2016-03-25T06:55:56.038Z,991.53
2016-03-25T06:56:56.040Z,991.55
2016-03-25T06:57:56.043Z,991.52
2016-03-25T06:58:56.030Z,991.55
2016-03-25T06:59:56.032Z,991.59
2016-03-25T07:00:56.035Z,991.55
2016-03-25T07:01:56.038Z,991.55
2016-03-25T07:02:56.041Z,991.54
2016-03-25T07:03:56.028Z,991.51
2016-03-25T07:04:56.031Z,991.52
2016-03-25T07:05:56.033Z,991.59
2016-03-25T07:06:56.036Z,991.55
2016-03-25T07:07:56.039Z,991.55
2016-03-25T07:08:56.026Z,991.57
2016-03-25T07:09:56.028Z,991.52
2016-03-25T07:10:56.032Z,991.58
2016-03-25T07:11:56.034Z,991.53
2016-03-25T07:12:56.036Z,991.56
2016-03-25T07:13:56.039Z,991.5
2016-03-25T07:14:56.026Z,991.52
2016-03-25T07:15:56.028Z,991.53
2016-03-25T07:16:56.031Z,991.52
2016-03-25T07:17:56.034Z,991.53
2016-03-25T07:18:56.036Z,991.54
2016-03-25T07:19:56.025Z,991.54
2016-03-25T07:20:56.042Z,991.55
2016-03-25T07:21:56.029Z,991.52
2016-03-25T07:22:56.033Z,991.51
2016-03-25T07:23:56.035Z,991.48
2016-03-25T07:24:56.037Z,991.46
2016-03-25T07:25:56.227Z,991.5
2016-03-25T07:26:56.027Z,991.5
2016-03-25T07:27:56.030Z,991.51
2016-03-25T07:28:56.033Z,991.53
2016-03-25T07:29:56.036Z,991.55
2016-03-25T07:30:56.038Z,991.53
2016-03-25T07:31:56.026Z,991.49
2016-03-25T07:32:56.028Z,991.5
2016-03-25T07:33:56.031Z,991.48
2016-03-25T07:34:56.017Z,991.52
2016-03-25T07:35:56.021Z,991.5
2016-03-25T07:36:56.023Z,991.52
2016-03-25T07:37:56.026Z,991.46
2016-03-25T07:38:56.029Z,991.46
2016-03-25T07:39:56.031Z,991.49
2016-03-25T07:40:56.033Z,991.54
2016-03-25T07:41:56.037Z,991.58
2016-03-25T07:42:56.055Z,991.58
2016-03-25T07:43:56.042Z,991.58
2016-03-25T07:44:56.045Z,991.54
2016-03-25T07:45:56.079Z,991.55
2016-03-25T07:46:56.050Z,991.56
2016-03-25T07:47:56.084Z,991.59
2016-03-25T07:48:56.056Z,991.57
2016-03-25T07:49:56.042Z,991.58
2016-03-25T07:50:56.030Z,991.6
2016-03-25T07:51:56.047Z,991.59
2016-03-25T07:52:56.050Z,991.61
2016-03-25T07:53:56.053Z,991.62
2016-03-25T07:54:56.041Z,991.63
2016-03-25T07:55:56.058Z,991.6
2016-03-25T07:56:56.045Z,991.65
2016-03-25T07:57:56.048Z,991.65
2016-03-25T07:58:56.036Z,991.63
2016-03-25T07:59:56.054Z,991.62
2016-03-25T08:00:56.040Z,991.57
2016-03-25T08:01:56.060Z,991.57
2016-03-25T08:02:56.062Z,991.57
2016-03-25T08:03:56.048Z,991.56
2016-03-25T08:04:56.051Z,991.62
2016-03-25T08:05:56.054Z,991.6
2016-03-25T08:06:56.057Z,991.59
2016-03-25T08:07:56.059Z,991.56
2016-03-25T08:08:56.078Z,991.56
2016-03-25T08:09:56.206Z,991.57
2016-03-25T08:10:56.067Z,991.58
2016-03-25T08:11:56.070Z,991.59
2016-03-25T08:12:56.057Z,991.6
2016-03-25T08:13:56.059Z,991.57
2016-03-25T08:14:56.078Z,991.57
2016-03-25T08:15:56.065Z,991.51
2016-03-25T08:16:56.084Z,991.48
2016-03-25T08:17:56.070Z,991.46
2016-03-25T08:18:56.120Z,991.54
2016-03-25T08:19:56.076Z,991.51
2016-03-25T08:20:56.094Z,991.57
2016-03-25T08:21:56.081Z,991.55
2016-03-25T08:22:56.100Z,991.58
2016-03-25T08:23:56.165Z,991.59
2016-03-25T08:24:56.105Z,991.6
2016-03-25T08:25:56.092Z,991.55
2016-03-25T08:26:56.173Z,991.57
2016-03-25T08:27:56.144Z,991.55
2016-03-25T08:28:56.100Z,991.57
2016-03-25T08:29:56.118Z,991.55
2016-03-25T08:30:56.560Z,991.53
2016-03-25T08:31:56.122Z,991.52
2016-03-25T08:32:56.124Z,991.49
2016-03-25T08:33:56.205Z,991.46
2016-03-25T08:34:56.130Z,991.43
2016-03-25T08:35:56.132Z,991.43
2016-03-25T08:36:56.135Z,991.44
2016-03-25T08:37:56.184Z,991.44
2016-03-25T08:38:56.156Z,991.39
2016-03-25T08:39:56.158Z,991.41
2016-03-25T08:40:56.145Z,991.44
2016-03-25T08:41:56.148Z,991.44
2016-03-25T08:42:56.182Z,991.47
2016-03-25T08:43:56.154Z,991.44
2016-03-25T08:44:56.172Z,991.52
2016-03-25T08:45:56.190Z,991.51
2016-03-25T08:46:56.209Z,991.46
2016-03-25T08:47:56.273Z,991.43
2016-03-25T08:48:56.183Z,991.44
2016-03-25T08:49:56.201Z,991.4
2016-03-25T08:50:56.189Z,991.35
2016-03-25T08:51:56.192Z,991.33
2016-03-25T08:52:56.194Z,991.36
2016-03-25T08:53:56.212Z,991.32
2016-03-25T08:54:56.246Z,991.24
2016-03-25T08:55:56.280Z,991.2
2016-03-25T08:56:56.220Z,991.17
2016-03-25T08:57:56.238Z,991.11
2016-03-25T08:58:56.257Z,991.1
2016-03-25T08:59:56.227Z,991.04
2016-03-25T09:00:56.246Z,991
2016-03-25T09:01:56.249Z,991.05
2016-03-25T09:02:56.283Z,991.01
2016-03-25T09:03:56.302Z,990.96
2016-03-25T09:04:56.523Z,990.95
2016-03-25T09:05:56.275Z,990.95
2016-03-25T09:06:56.309Z,990.9
